sensor_id;sensor_type;location;lat;lon;timestamp;P1;durP1;ratioP1;P2;durP2;ratioP2
17993;SDS011;9122;48.406;9.984;2022-11-13T00:01:06;13.00;;;10.23;;
17993;SDS011;9122;48.406;9.984;2022-11-13T00:04:04;13.73;;;10.70;;
17993;SDS011;9122;48.406;9.984;2022-11-13T00:06:48;10.67;;;9.13;;
17993;SDS011;9122;48.406;9.984;2022-11-13T00:09:32;9.83;;;8.83;;
17993;SDS011;9122;48.406;9.984;2022-11-13T00:12:17;10.80;;;8.70;;
17993;SDS011;9122;48.406;9.984;2022-11-13T00:15:01;11.40;;;9.37;;
17993;SDS011;9122;48.406;9.984;2022-11-13T00:17:46;13.60;;;9.20;;
17993;SDS011;9122;48.406;9.984;2022-11-13T00:20:31;12.13;;;9.03;;
17993;SDS011;9122;48.406;9.984;2022-11-13T00:23:16;12.37;;;10.10;;
17993;SDS011;9122;48.406;9.984;2022-11-13T00:26:42;13.10;;;9.63;;
17993;SDS011;9122;48.406;9.984;2022-11-13T00:29:09;10.20;;;8.93;;
17993;SDS011;9122;48.406;9.984;2022-11-13T00:31:54;11.43;;;9.73;;
17993;SDS011;9122;48.406;9.984;2022-11-13T00:34:38;12.23;;;9.17;;
17993;SDS011;9122;48.406;9.984;2022-11-13T00:37:22;13.67;;;9.73;;
17993;SDS011;9122;48.406;9.984;2022-11-13T00:40:07;18.03;;;10.17;;
17993;SDS011;9122;48.406;9.984;2022-11-13T00:42:52;11.93;;;10.50;;
17993;SDS011;9122;48.406;9.984;2022-11-13T00:45:36;14.40;;;11.00;;
17993;SDS011;9122;48.406;9.984;2022-11-13T00:48:20;12.20;;;10.30;;
17993;SDS011;9122;48.406;9.984;2022-11-13T00:51:04;11.80;;;10.13;;
17993;SDS011;9122;48.406;9.984;2022-11-13T00:53:48;21.20;;;11.40;;
17993;SDS011;9122;48.406;9.984;2022-11-13T00:56:33;16.97;;;11.37;;
17993;SDS011;9122;48.406;9.984;2022-11-13T00:59:20;15.20;;;9.80;;
17993;SDS011;9122;48.406;9.984;2022-11-13T01:02:04;13.23;;;10.73;;
17993;SDS011;9122;48.406;9.984;2022-11-13T01:04:51;14.83;;;10.93;;
17993;SDS011;9122;48.406;9.984;2022-11-13T01:07:41;15.33;;;9.43;;
17993;SDS011;9122;48.406;9.984;2022-11-13T01:10:25;20.67;;;10.73;;
17993;SDS011;9122;48.406;9.984;2022-11-13T01:13:10;12.33;;;10.20;;
17993;SDS011;9122;48.406;9.984;2022-11-13T01:15:54;14.63;;;9.80;;
17993;SDS011;9122;48.406;9.984;2022-11-13T01:18:39;11.57;;;10.37;;
17993;SDS011;9122;48.406;9.984;2022-11-13T01:21:26;14.47;;;10.97;;
17993;SDS011;9122;48.406;9.984;2022-11-13T01:24:11;11.57;;;10.33;;
17993;SDS011;9122;48.406;9.984;2022-11-13T01:26:56;15.90;;;10.67;;
17993;SDS011;9122;48.406;9.984;2022-11-13T01:29:40;13.23;;;10.30;;
17993;SDS011;9122;48.406;9.984;2022-11-13T01:32:25;13.27;;;10.03;;
17993;SDS011;9122;48.406;9.984;2022-11-13T01:35:12;17.47;;;10.77;;
17993;SDS011;9122;48.406;9.984;2022-11-13T01:37:56;10.93;;;9.67;;
17993;SDS011;9122;48.406;9.984;2022-11-13T01:40:46;14.57;;;9.77;;
17993;SDS011;9122;48.406;9.984;2022-11-13T01:43:33;15.50;;;10.13;;
17993;SDS011;9122;48.406;9.984;2022-11-13T01:51:55;15.30;;;11.40;;
17993;SDS011;9122;48.406;9.984;2022-11-13T01:54:46;16.13;;;10.60;;
17993;SDS011;9122;48.406;9.984;2022-11-13T01:57:33;14.07;;;11.57;;
17993;SDS011;9122;48.406;9.984;2022-11-13T02:00:18;22.03;;;11.63;;
17993;SDS011;9122;48.406;9.984;2022-11-13T02:03:03;12.30;;;10.83;;
17993;SDS011;9122;48.406;9.984;2022-11-13T02:05:47;17.07;;;12.77;;
17993;SDS011;9122;48.406;9.984;2022-11-13T02:08:32;16.27;;;12.00;;
17993;SDS011;9122;48.406;9.984;2022-11-13T02:11:16;15.67;;;12.20;;
17993;SDS011;9122;48.406;9.984;2022-11-13T02:14:01;14.10;;;12.30;;
17993;SDS011;9122;48.406;9.984;2022-11-13T02:16:47;13.70;;;11.43;;
17993;SDS011;9122;48.406;9.984;2022-11-13T02:19:41;18.57;;;12.73;;
17993;SDS011;9122;48.406;9.984;2022-11-13T02:22:34;14.23;;;12.13;;
17993;SDS011;9122;48.406;9.984;2022-11-13T02:25:32;13.93;;;11.67;;
17993;SDS011;9122;48.406;9.984;2022-11-13T02:28:18;14.23;;;10.93;;
17993;SDS011;9122;48.406;9.984;2022-11-13T02:31:09;14.80;;;12.47;;
17993;SDS011;9122;48.406;9.984;2022-11-13T02:33:56;20.07;;;13.50;;
17993;SDS011;9122;48.406;9.984;2022-11-13T02:36:41;19.27;;;12.37;;
17993;SDS011;9122;48.406;9.984;2022-11-13T02:39:25;17.20;;;12.23;;
17993;SDS011;9122;48.406;9.984;2022-11-13T02:42:09;17.10;;;12.13;;
17993;SDS011;9122;48.406;9.984;2022-11-13T02:44:54;16.83;;;13.37;;
17993;SDS011;9122;48.406;9.984;2022-11-13T02:47:38;18.23;;;12.60;;
17993;SDS011;9122;48.406;9.984;2022-11-13T02:50:22;23.10;;;12.87;;
17993;SDS011;9122;48.406;9.984;2022-11-13T02:53:07;24.97;;;13.90;;
17993;SDS011;9122;48.406;9.984;2022-11-13T02:55:51;24.17;;;12.93;;
17993;SDS011;9122;48.406;9.984;2022-11-13T02:58:36;21.77;;;12.80;;
17993;SDS011;9122;48.406;9.984;2022-11-13T03:01:20;23.63;;;13.93;;
17993;SDS011;9122;48.406;9.984;2022-11-13T03:04:06;16.47;;;12.63;;
17993;SDS011;9122;48.406;9.984;2022-11-13T03:06:50;22.10;;;14.07;;
17993;SDS011;9122;48.406;9.984;2022-11-13T03:09:35;19.43;;;13.27;;
17993;SDS011;9122;48.406;9.984;2022-11-13T03:12:20;21.90;;;13.67;;
17993;SDS011;9122;48.406;9.984;2022-11-13T03:15:04;20.53;;;14.73;;
17993;SDS011;9122;48.406;9.984;2022-11-13T03:17:49;18.47;;;13.63;;
17993;SDS011;9122;48.406;9.984;2022-11-13T03:20:40;16.70;;;13.97;;
17993;SDS011;9122;48.406;9.984;2022-11-13T03:23:26;19.80;;;14.40;;
17993;SDS011;9122;48.406;9.984;2022-11-13T03:26:13;17.20;;;14.27;;
17993;SDS011;9122;48.406;9.984;2022-11-13T03:28:59;22.47;;;13.57;;
17993;SDS011;9122;48.406;9.984;2022-11-13T03:31:44;16.10;;;13.30;;
17993;SDS011;9122;48.406;9.984;2022-11-13T03:34:28;16.90;;;13.93;;
17993;SDS011;9122;48.406;9.984;2022-11-13T03:37:12;19.80;;;13.43;;
17993;SDS011;9122;48.406;9.984;2022-11-13T03:39:56;17.70;;;13.33;;
17993;SDS011;9122;48.406;9.984;2022-11-13T03:42:40;17.73;;;13.17;;
17993;SDS011;9122;48.406;9.984;2022-11-13T03:45:24;16.63;;;13.47;;
17993;SDS011;9122;48.406;9.984;2022-11-13T03:48:09;18.80;;;13.80;;
17993;SDS011;9122;48.406;9.984;2022-11-13T03:50:53;16.57;;;13.53;;
17993;SDS011;9122;48.406;9.984;2022-11-13T03:53:39;16.27;;;13.40;;
17993;SDS011;9122;48.406;9.984;2022-11-13T03:56:26;18.13;;;12.90;;
17993;SDS011;9122;48.406;9.984;2022-11-13T03:59:10;18.10;;;14.33;;
17993;SDS011;9122;48.406;9.984;2022-11-13T04:01:54;17.90;;;14.07;;
17993;SDS011;9122;48.406;9.984;2022-11-13T04:04:39;20.33;;;13.93;;
17993;SDS011;9122;48.406;9.984;2022-11-13T04:07:23;16.77;;;13.40;;
17993;SDS011;9122;48.406;9.984;2022-11-13T04:10:07;14.47;;;12.53;;
17993;SDS011;9122;48.406;9.984;2022-11-13T04:12:52;16.57;;;13.20;;
17993;SDS011;9122;48.406;9.984;2022-11-13T04:15:36;14.13;;;12.13;;
17993;SDS011;9122;48.406;9.984;2022-11-13T04:18:21;19.70;;;13.67;;
17993;SDS011;9122;48.406;9.984;2022-11-13T04:21:05;21.00;;;12.77;;
17993;SDS011;9122;48.406;9.984;2022-11-13T04:23:49;15.00;;;12.27;;
17993;SDS011;9122;48.406;9.984;2022-11-13T04:26:34;13.73;;;12.20;;
17993;SDS011;9122;48.406;9.984;2022-11-13T04:29:19;21.00;;;13.00;;
17993;SDS011;9122;48.406;9.984;2022-11-13T04:32:04;16.40;;;12.63;;
17993;SDS011;9122;48.406;9.984;2022-11-13T04:34:49;16.80;;;12.50;;
17993;SDS011;9122;48.406;9.984;2022-11-13T04:37:34;15.97;;;13.93;;
17993;SDS011;9122;48.406;9.984;2022-11-13T04:40:18;17.03;;;13.53;;
17993;SDS011;9122;48.406;9.984;2022-11-13T04:43:03;15.27;;;12.93;;
17993;SDS011;9122;48.406;9.984;2022-11-13T04:45:47;18.80;;;14.23;;
17993;SDS011;9122;48.406;9.984;2022-11-13T04:48:35;16.27;;;12.90;;
17993;SDS011;9122;48.406;9.984;2022-11-13T04:51:20;16.20;;;12.63;;
17993;SDS011;9122;48.406;9.984;2022-11-13T04:54:04;16.63;;;12.97;;
17993;SDS011;9122;48.406;9.984;2022-11-13T04:56:48;16.63;;;11.40;;
17993;SDS011;9122;48.406;9.984;2022-11-13T04:59:32;14.10;;;12.23;;
17993;SDS011;9122;48.406;9.984;2022-11-13T05:02:17;14.63;;;12.03;;
17993;SDS011;9122;48.406;9.984;2022-11-13T05:05:01;15.13;;;12.77;;
17993;SDS011;9122;48.406;9.984;2022-11-13T05:07:46;13.63;;;11.70;;
17993;SDS011;9122;48.406;9.984;2022-11-13T05:10:30;12.90;;;11.43;;
17993;SDS011;9122;48.406;9.984;2022-11-13T05:13:14;17.53;;;12.13;;
17993;SDS011;9122;48.406;9.984;2022-11-13T05:16:06;15.17;;;11.20;;
17993;SDS011;9122;48.406;9.984;2022-11-13T05:18:52;15.17;;;12.17;;
17993;SDS011;9122;48.406;9.984;2022-11-13T05:21:37;16.10;;;12.93;;
17993;SDS011;9122;48.406;9.984;2022-11-13T05:24:22;15.47;;;12.77;;
17993;SDS011;9122;48.406;9.984;2022-11-13T05:27:07;15.20;;;13.10;;
17993;SDS011;9122;48.406;9.984;2022-11-13T05:29:51;14.40;;;12.47;;
17993;SDS011;9122;48.406;9.984;2022-11-13T05:32:35;16.53;;;12.83;;
17993;SDS011;9122;48.406;9.984;2022-11-13T05:35:19;15.53;;;13.33;;
17993;SDS011;9122;48.406;9.984;2022-11-13T05:38:03;14.27;;;12.67;;
17993;SDS011;9122;48.406;9.984;2022-11-13T05:40:47;15.50;;;12.43;;
17993;SDS011;9122;48.406;9.984;2022-11-13T05:43:32;14.23;;;12.00;;
17993;SDS011;9122;48.406;9.984;2022-11-13T05:46:18;16.43;;;12.13;;
17993;SDS011;9122;48.406;9.984;2022-11-13T05:49:09;17.97;;;13.30;;
17993;SDS011;9122;48.406;9.984;2022-11-13T05:51:54;14.73;;;12.97;;
17993;SDS011;9122;48.406;9.984;2022-11-13T05:54:38;15.97;;;13.17;;
17993;SDS011;9122;48.406;9.984;2022-11-13T05:57:23;17.20;;;13.07;;
17993;SDS011;9122;48.406;9.984;2022-11-13T06:00:07;16.33;;;12.60;;
17993;SDS011;9122;48.406;9.984;2022-11-13T06:02:52;14.17;;;12.10;;
17993;SDS011;9122;48.406;9.984;2022-11-13T06:05:36;16.13;;;12.57;;
17993;SDS011;9122;48.406;9.984;2022-11-13T06:08:21;17.17;;;13.53;;
17993;SDS011;9122;48.406;9.984;2022-11-13T06:11:06;19.33;;;14.30;;
17993;SDS011;9122;48.406;9.984;2022-11-13T06:13:52;16.47;;;12.40;;
17993;SDS011;9122;48.406;9.984;2022-11-13T06:16:38;17.97;;;13.53;;
17993;SDS011;9122;48.406;9.984;2022-11-13T06:19:25;15.50;;;13.30;;
17993;SDS011;9122;48.406;9.984;2022-11-13T06:22:09;18.57;;;13.93;;
17993;SDS011;9122;48.406;9.984;2022-11-13T06:24:53;17.13;;;14.03;;
17993;SDS011;9122;48.406;9.984;2022-11-13T06:27:37;16.27;;;13.83;;
17993;SDS011;9122;48.406;9.984;2022-11-13T06:30:21;17.40;;;13.53;;
17993;SDS011;9122;48.406;9.984;2022-11-13T06:33:06;18.93;;;13.03;;
17993;SDS011;9122;48.406;9.984;2022-11-13T06:35:51;16.40;;;12.87;;
17993;SDS011;9122;48.406;9.984;2022-11-13T06:38:35;17.77;;;12.50;;
17993;SDS011;9122;48.406;9.984;2022-11-13T06:41:22;15.20;;;12.67;;
17993;SDS011;9122;48.406;9.984;2022-11-13T06:44:08;13.07;;;11.07;;
17993;SDS011;9122;48.406;9.984;2022-11-13T06:46:53;13.77;;;11.67;;
17993;SDS011;9122;48.406;9.984;2022-11-13T06:49:37;14.53;;;11.97;;
17993;SDS011;9122;48.406;9.984;2022-11-13T06:52:25;13.33;;;11.37;;
17993;SDS011;9122;48.406;9.984;2022-11-13T06:55:09;13.30;;;11.57;;
17993;SDS011;9122;48.406;9.984;2022-11-13T06:57:54;14.37;;;12.10;;
17993;SDS011;9122;48.406;9.984;2022-11-13T07:00:39;15.37;;;12.17;;
17993;SDS011;9122;48.406;9.984;2022-11-13T07:03:25;18.53;;;13.73;;
17993;SDS011;9122;48.406;9.984;2022-11-13T07:06:17;14.67;;;11.87;;
17993;SDS011;9122;48.406;9.984;2022-11-13T07:09:03;15.53;;;12.70;;
17993;SDS011;9122;48.406;9.984;2022-11-13T07:11:48;14.23;;;12.27;;
17993;SDS011;9122;48.406;9.984;2022-11-13T07:14:32;14.37;;;12.03;;
17993;SDS011;9122;48.406;9.984;2022-11-13T07:17:16;15.90;;;13.03;;
17993;SDS011;9122;48.406;9.984;2022-11-13T07:20:11;14.17;;;12.67;;
17993;SDS011;9122;48.406;9.984;2022-11-13T07:22:55;15.17;;;12.67;;
17993;SDS011;9122;48.406;9.984;2022-11-13T07:25:40;14.40;;;11.77;;
17993;SDS011;9122;48.406;9.984;2022-11-13T07:28:24;14.40;;;12.93;;
17993;SDS011;9122;48.406;9.984;2022-11-13T07:31:12;16.90;;;13.23;;
17993;SDS011;9122;48.406;9.984;2022-11-13T07:33:58;15.63;;;13.07;;
17993;SDS011;9122;48.406;9.984;2022-11-13T07:36:44;20.77;;;12.90;;
17993;SDS011;9122;48.406;9.984;2022-11-13T07:39:28;15.13;;;12.53;;
17993;SDS011;9122;48.406;9.984;2022-11-13T07:42:13;15.63;;;12.57;;
17993;SDS011;9122;48.406;9.984;2022-11-13T07:44:57;17.27;;;13.93;;
17993;SDS011;9122;48.406;9.984;2022-11-13T07:47:41;18.93;;;15.37;;
17993;SDS011;9122;48.406;9.984;2022-11-13T07:50:27;19.87;;;14.17;;
17993;SDS011;9122;48.406;9.984;2022-11-13T07:53:13;15.77;;;13.17;;
17993;SDS011;9122;48.406;9.984;2022-11-13T07:56:01;17.40;;;14.83;;
17993;SDS011;9122;48.406;9.984;2022-11-13T07:58:46;17.23;;;14.37;;
17993;SDS011;9122;48.406;9.984;2022-11-13T08:01:31;17.47;;;14.43;;
17993;SDS011;9122;48.406;9.984;2022-11-13T08:04:14;18.80;;;14.70;;
17993;SDS011;9122;48.406;9.984;2022-11-13T08:06:59;15.93;;;14.23;;
17993;SDS011;9122;48.406;9.984;2022-11-13T08:09:44;16.07;;;13.90;;
17993;SDS011;9122;48.406;9.984;2022-11-13T08:12:29;18.80;;;14.30;;
17993;SDS011;9122;48.406;9.984;2022-11-13T08:15:13;16.73;;;14.90;;
17993;SDS011;9122;48.406;9.984;2022-11-13T08:17:58;18.30;;;14.00;;
17993;SDS011;9122;48.406;9.984;2022-11-13T08:20:44;14.97;;;12.47;;
17993;SDS011;9122;48.406;9.984;2022-11-13T08:23:29;20.60;;;15.67;;
17993;SDS011;9122;48.406;9.984;2022-11-13T08:26:16;18.33;;;15.03;;
17993;SDS011;9122;48.406;9.984;2022-11-13T08:29:01;18.50;;;14.20;;
17993;SDS011;9122;48.406;9.984;2022-11-13T08:31:46;16.03;;;14.37;;
17993;SDS011;9122;48.406;9.984;2022-11-13T08:34:30;16.93;;;15.07;;
17993;SDS011;9122;48.406;9.984;2022-11-13T08:37:14;20.60;;;16.47;;
17993;SDS011;9122;48.406;9.984;2022-11-13T08:39:59;17.77;;;15.10;;
17993;SDS011;9122;48.406;9.984;2022-11-13T08:42:43;18.63;;;15.03;;
17993;SDS011;9122;48.406;9.984;2022-11-13T08:45:28;19.10;;;16.53;;
17993;SDS011;9122;48.406;9.984;2022-11-13T08:48:14;17.53;;;14.47;;
17993;SDS011;9122;48.406;9.984;2022-11-13T08:50:58;21.57;;;16.33;;
17993;SDS011;9122;48.406;9.984;2022-11-13T08:53:43;18.67;;;14.90;;
17993;SDS011;9122;48.406;9.984;2022-11-13T08:56:27;17.67;;;15.33;;
17993;SDS011;9122;48.406;9.984;2022-11-13T08:59:11;17.87;;;16.00;;
17993;SDS011;9122;48.406;9.984;2022-11-13T09:01:56;23.40;;;18.90;;
17993;SDS011;9122;48.406;9.984;2022-11-13T09:04:43;19.50;;;17.00;;
17993;SDS011;9122;48.406;9.984;2022-11-13T09:07:28;20.93;;;16.63;;
17993;SDS011;9122;48.406;9.984;2022-11-13T09:10:12;20.83;;;16.60;;
17993;SDS011;9122;48.406;9.984;2022-11-13T09:13:09;19.63;;;16.63;;
17993;SDS011;9122;48.406;9.984;2022-11-13T09:15:56;19.90;;;16.23;;
17993;SDS011;9122;48.406;9.984;2022-11-13T09:18:42;20.53;;;17.07;;
17993;SDS011;9122;48.406;9.984;2022-11-13T09:21:27;18.83;;;16.23;;
17993;SDS011;9122;48.406;9.984;2022-11-13T09:24:11;23.97;;;17.97;;
17993;SDS011;9122;48.406;9.984;2022-11-13T09:26:55;20.30;;;17.67;;
17993;SDS011;9122;48.406;9.984;2022-11-13T09:29:40;22.23;;;17.73;;
17993;SDS011;9122;48.406;9.984;2022-11-13T09:32:25;19.90;;;16.47;;
17993;SDS011;9122;48.406;9.984;2022-11-13T09:35:09;23.07;;;18.00;;
17993;SDS011;9122;48.406;9.984;2022-11-13T09:37:54;22.07;;;17.50;;
17993;SDS011;9122;48.406;9.984;2022-11-13T09:49:34;20.90;;;17.23;;
17993;SDS011;9122;48.406;9.984;2022-11-13T09:52:36;21.77;;;18.10;;
17993;SDS011;9122;48.406;9.984;2022-11-13T09:55:25;19.13;;;15.63;;
17993;SDS011;9122;48.406;9.984;2022-11-13T09:58:18;20.53;;;16.87;;
17993;SDS011;9122;48.406;9.984;2022-11-13T10:01:57;18.63;;;16.63;;
17993;SDS011;9122;48.406;9.984;2022-11-13T10:05:04;20.60;;;17.53;;
17993;SDS011;9122;48.406;9.984;2022-11-13T10:07:59;20.93;;;17.47;;
17993;SDS011;9122;48.406;9.984;2022-11-13T10:13:49;21.30;;;16.83;;
17993;SDS011;9122;48.406;9.984;2022-11-13T10:16:55;25.27;;;21.33;;
17993;SDS011;9122;48.406;9.984;2022-11-13T10:22:43;18.17;;;15.80;;
17993;SDS011;9122;48.406;9.984;2022-11-13T10:25:51;20.93;;;17.87;;
17993;SDS011;9122;48.406;9.984;2022-11-13T10:28:41;22.93;;;18.33;;
17993;SDS011;9122;48.406;9.984;2022-11-13T10:31:26;20.27;;;16.53;;
17993;SDS011;9122;48.406;9.984;2022-11-13T10:34:11;19.70;;;16.80;;
17993;SDS011;9122;48.406;9.984;2022-11-13T10:39:50;20.83;;;18.60;;
17993;SDS011;9122;48.406;9.984;2022-11-13T10:42:36;18.90;;;16.90;;
17993;SDS011;9122;48.406;9.984;2022-11-13T10:45:23;20.17;;;18.00;;
17993;SDS011;9122;48.406;9.984;2022-11-13T10:48:17;20.93;;;17.93;;
17993;SDS011;9122;48.406;9.984;2022-11-13T10:51:20;19.83;;;17.17;;
17993;SDS011;9122;48.406;9.984;2022-11-13T10:54:28;20.30;;;15.97;;
17993;SDS011;9122;48.406;9.984;2022-11-13T11:03:14;19.23;;;17.17;;
17993;SDS011;9122;48.406;9.984;2022-11-13T11:06:01;18.73;;;16.93;;
17993;SDS011;9122;48.406;9.984;2022-11-13T11:08:46;18.87;;;16.80;;
17993;SDS011;9122;48.406;9.984;2022-11-13T11:11:31;20.83;;;17.83;;
17993;SDS011;9122;48.406;9.984;2022-11-13T11:14:37;17.97;;;16.07;;
17993;SDS011;9122;48.406;9.984;2022-11-13T11:32:49;19.20;;;16.67;;
17993;SDS011;9122;48.406;9.984;2022-11-13T11:47:59;17.30;;;15.60;;
17993;SDS011;9122;48.406;9.984;2022-11-13T12:00:27;17.03;;;15.33;;
17993;SDS011;9122;48.406;9.984;2022-11-13T12:03:30;16.67;;;14.97;;
17993;SDS011;9122;48.406;9.984;2022-11-13T12:06:50;16.83;;;15.07;;
17993;SDS011;9122;48.406;9.984;2022-11-13T12:09:56;17.20;;;15.57;;
17993;SDS011;9122;48.406;9.984;2022-11-13T12:28:31;17.07;;;15.33;;
17993;SDS011;9122;48.406;9.984;2022-11-13T12:34:31;15.77;;;14.13;;
17993;SDS011;9122;48.406;9.984;2022-11-13T12:37:25;15.13;;;13.63;;
17993;SDS011;9122;48.406;9.984;2022-11-13T12:46:50;15.60;;;14.03;;
17993;SDS011;9122;48.406;9.984;2022-11-13T12:49:37;15.87;;;14.20;;
17993;SDS011;9122;48.406;9.984;2022-11-13T12:52:21;16.80;;;15.10;;
17993;SDS011;9122;48.406;9.984;2022-11-13T12:55:29;16.53;;;14.90;;
17993;SDS011;9122;48.406;9.984;2022-11-13T12:58:19;16.67;;;14.93;;
17993;SDS011;9122;48.406;9.984;2022-11-13T13:01:13;15.57;;;14.03;;
17993;SDS011;9122;48.406;9.984;2022-11-13T13:15:53;16.10;;;14.40;;
17993;SDS011;9122;48.406;9.984;2022-11-13T13:18:40;16.13;;;14.53;;
17993;SDS011;9122;48.406;9.984;2022-11-13T13:21:25;15.97;;;14.37;;
17993;SDS011;9122;48.406;9.984;2022-11-13T13:24:24;14.97;;;13.53;;
17993;SDS011;9122;48.406;9.984;2022-11-13T13:27:27;14.93;;;13.47;;
17993;SDS011;9122;48.406;9.984;2022-11-13T13:30:17;14.63;;;13.23;;
17993;SDS011;9122;48.406;9.984;2022-11-13T13:39:14;15.37;;;13.77;;
17993;SDS011;9122;48.406;9.984;2022-11-13T13:45:01;15.73;;;13.97;;
17993;SDS011;9122;48.406;9.984;2022-11-13T13:47:52;13.67;;;12.37;;
17993;SDS011;9122;48.406;9.984;2022-11-13T13:50:40;13.73;;;12.50;;
17993;SDS011;9122;48.406;9.984;2022-11-13T13:53:29;15.13;;;13.53;;
17993;SDS011;9122;48.406;9.984;2022-11-13T13:56:16;13.83;;;12.43;;
17993;SDS011;9122;48.406;9.984;2022-11-13T13:59:03;14.27;;;12.77;;
17993;SDS011;9122;48.406;9.984;2022-11-13T14:01:55;14.77;;;13.37;;
17993;SDS011;9122;48.406;9.984;2022-11-13T14:04:42;13.90;;;12.40;;
17993;SDS011;9122;48.406;9.984;2022-11-13T14:07:29;14.37;;;13.00;;
17993;SDS011;9122;48.406;9.984;2022-11-13T14:10:14;15.70;;;12.63;;
17993;SDS011;9122;48.406;9.984;2022-11-13T14:13:01;14.97;;;13.40;;
17993;SDS011;9122;48.406;9.984;2022-11-13T14:15:45;15.20;;;13.63;;
17993;SDS011;9122;48.406;9.984;2022-11-13T14:18:30;15.43;;;13.93;;
17993;SDS011;9122;48.406;9.984;2022-11-13T14:21:19;15.73;;;13.70;;
17993;SDS011;9122;48.406;9.984;2022-11-13T14:27:04;14.17;;;12.70;;
17993;SDS011;9122;48.406;9.984;2022-11-13T14:29:51;14.83;;;13.23;;
17993;SDS011;9122;48.406;9.984;2022-11-13T14:32:40;15.23;;;13.63;;
17993;SDS011;9122;48.406;9.984;2022-11-13T14:35:25;15.83;;;13.60;;
17993;SDS011;9122;48.406;9.984;2022-11-13T14:38:16;15.63;;;14.07;;
17993;SDS011;9122;48.406;9.984;2022-11-13T14:41:14;14.87;;;13.00;;
17993;SDS011;9122;48.406;9.984;2022-11-13T14:44:27;14.73;;;13.23;;
17993;SDS011;9122;48.406;9.984;2022-11-13T14:47:25;16.07;;;13.97;;
17993;SDS011;9122;48.406;9.984;2022-11-13T14:53:06;14.30;;;12.80;;
17993;SDS011;9122;48.406;9.984;2022-11-13T14:55:53;15.10;;;13.60;;
17993;SDS011;9122;48.406;9.984;2022-11-13T14:58:45;13.50;;;12.10;;
17993;SDS011;9122;48.406;9.984;2022-11-13T15:01:30;13.40;;;12.10;;
17993;SDS011;9122;48.406;9.984;2022-11-13T15:04:14;14.27;;;12.77;;
17993;SDS011;9122;48.406;9.984;2022-11-13T15:06:59;13.70;;;12.47;;
17993;SDS011;9122;48.406;9.984;2022-11-13T15:09:45;13.37;;;12.07;;
17993;SDS011;9122;48.406;9.984;2022-11-13T15:12:29;13.67;;;12.30;;
17993;SDS011;9122;48.406;9.984;2022-11-13T15:15:14;13.17;;;11.97;;
17993;SDS011;9122;48.406;9.984;2022-11-13T15:18:06;13.87;;;12.47;;
17993;SDS011;9122;48.406;9.984;2022-11-13T15:20:59;15.47;;;12.83;;
17993;SDS011;9122;48.406;9.984;2022-11-13T15:23:44;15.40;;;13.37;;
17993;SDS011;9122;48.406;9.984;2022-11-13T15:26:28;14.83;;;13.27;;
17993;SDS011;9122;48.406;9.984;2022-11-13T15:29:13;14.73;;;13.17;;
17993;SDS011;9122;48.406;9.984;2022-11-13T15:31:57;14.30;;;12.87;;
17993;SDS011;9122;48.406;9.984;2022-11-13T15:34:41;14.07;;;12.67;;
17993;SDS011;9122;48.406;9.984;2022-11-13T15:37:26;15.13;;;13.63;;
17993;SDS011;9122;48.406;9.984;2022-11-13T15:40:11;14.63;;;13.13;;
17993;SDS011;9122;48.406;9.984;2022-11-13T15:42:56;15.30;;;13.60;;
17993;SDS011;9122;48.406;9.984;2022-11-13T15:45:44;15.37;;;13.10;;
17993;SDS011;9122;48.406;9.984;2022-11-13T15:48:28;15.27;;;13.67;;
17993;SDS011;9122;48.406;9.984;2022-11-13T15:57:17;15.23;;;13.70;;
17993;SDS011;9122;48.406;9.984;2022-11-13T16:00:13;15.33;;;13.77;;
17993;SDS011;9122;48.406;9.984;2022-11-13T16:03:04;14.93;;;12.27;;
17993;SDS011;9122;48.406;9.984;2022-11-13T16:05:54;18.87;;;12.90;;
17993;SDS011;9122;48.406;9.984;2022-11-13T16:08:40;14.87;;;13.40;;
17993;SDS011;9122;48.406;9.984;2022-11-13T16:11:24;13.73;;;12.33;;
17993;SDS011;9122;48.406;9.984;2022-11-13T16:14:09;13.83;;;12.50;;
17993;SDS011;9122;48.406;9.984;2022-11-13T16:16:53;14.30;;;12.43;;
17993;SDS011;9122;48.406;9.984;2022-11-13T16:19:39;12.97;;;11.67;;
17993;SDS011;9122;48.406;9.984;2022-11-13T16:22:25;13.73;;;12.40;;
17993;SDS011;9122;48.406;9.984;2022-11-13T16:25:12;14.37;;;12.90;;
17993;SDS011;9122;48.406;9.984;2022-11-13T16:28:00;14.67;;;13.13;;
17993;SDS011;9122;48.406;9.984;2022-11-13T16:30:46;15.37;;;13.60;;
17993;SDS011;9122;48.406;9.984;2022-11-13T16:33:35;15.67;;;13.93;;
17993;SDS011;9122;48.406;9.984;2022-11-13T16:36:20;14.97;;;12.03;;
17993;SDS011;9122;48.406;9.984;2022-11-13T16:39:05;14.93;;;13.43;;
17993;SDS011;9122;48.406;9.984;2022-11-13T16:41:52;14.63;;;13.03;;
17993;SDS011;9122;48.406;9.984;2022-11-13T16:44:37;15.30;;;13.23;;
17993;SDS011;9122;48.406;9.984;2022-11-13T16:47:22;15.97;;;13.67;;
17993;SDS011;9122;48.406;9.984;2022-11-13T16:50:26;15.37;;;13.37;;
17993;SDS011;9122;48.406;9.984;2022-11-13T16:53:12;15.60;;;13.23;;
17993;SDS011;9122;48.406;9.984;2022-11-13T16:55:57;13.47;;;12.07;;
17993;SDS011;9122;48.406;9.984;2022-11-13T16:58:43;14.57;;;13.10;;
17993;SDS011;9122;48.406;9.984;2022-11-13T17:01:27;14.83;;;13.30;;
17993;SDS011;9122;48.406;9.984;2022-11-13T17:04:12;13.67;;;12.37;;
17993;SDS011;9122;48.406;9.984;2022-11-13T17:06:59;15.30;;;13.70;;
17993;SDS011;9122;48.406;9.984;2022-11-13T17:09:44;15.63;;;13.27;;
17993;SDS011;9122;48.406;9.984;2022-11-13T17:12:28;13.93;;;12.40;;
17993;SDS011;9122;48.406;9.984;2022-11-13T17:15:13;15.90;;;14.40;;
17993;SDS011;9122;48.406;9.984;2022-11-13T17:17:58;17.77;;;14.67;;
17993;SDS011;9122;48.406;9.984;2022-11-13T17:20:42;18.07;;;14.23;;
17993;SDS011;9122;48.406;9.984;2022-11-13T17:23:26;17.20;;;14.43;;
17993;SDS011;9122;48.406;9.984;2022-11-13T17:26:10;16.37;;;14.67;;
17993;SDS011;9122;48.406;9.984;2022-11-13T17:28:55;16.93;;;15.13;;
17993;SDS011;9122;48.406;9.984;2022-11-13T17:31:44;16.83;;;15.00;;
17993;SDS011;9122;48.406;9.984;2022-11-13T17:34:29;17.23;;;15.43;;
17993;SDS011;9122;48.406;9.984;2022-11-13T17:37:13;16.83;;;15.13;;
17993;SDS011;9122;48.406;9.984;2022-11-13T17:39:58;17.13;;;15.43;;
17993;SDS011;9122;48.406;9.984;2022-11-13T17:42:43;17.93;;;15.77;;
17993;SDS011;9122;48.406;9.984;2022-11-13T17:45:30;16.93;;;15.20;;
17993;SDS011;9122;48.406;9.984;2022-11-13T17:48:14;17.63;;;15.73;;
17993;SDS011;9122;48.406;9.984;2022-11-13T17:51:03;18.40;;;16.17;;
17993;SDS011;9122;48.406;9.984;2022-11-13T17:53:52;16.97;;;15.17;;
17993;SDS011;9122;48.406;9.984;2022-11-13T17:56:39;18.73;;;15.63;;
17993;SDS011;9122;48.406;9.984;2022-11-13T17:59:25;18.07;;;16.17;;
17993;SDS011;9122;48.406;9.984;2022-11-13T18:02:12;19.37;;;16.67;;
17993;SDS011;9122;48.406;9.984;2022-11-13T18:04:56;21.30;;;17.23;;
17993;SDS011;9122;48.406;9.984;2022-11-13T18:07:44;17.20;;;15.43;;
17993;SDS011;9122;48.406;9.984;2022-11-13T18:10:28;19.40;;;17.33;;
17993;SDS011;9122;48.406;9.984;2022-11-13T18:13:14;18.40;;;15.87;;
17993;SDS011;9122;48.406;9.984;2022-11-13T18:16:05;19.00;;;17.03;;
17993;SDS011;9122;48.406;9.984;2022-11-13T18:18:56;20.07;;;17.20;;
17993;SDS011;9122;48.406;9.984;2022-11-13T18:21:41;18.80;;;16.60;;
17993;SDS011;9122;48.406;9.984;2022-11-13T18:24:26;19.37;;;16.97;;
17993;SDS011;9122;48.406;9.984;2022-11-13T18:27:10;20.73;;;16.93;;
17993;SDS011;9122;48.406;9.984;2022-11-13T18:29:54;18.03;;;15.83;;
17993;SDS011;9122;48.406;9.984;2022-11-13T18:32:38;19.57;;;17.00;;
17993;SDS011;9122;48.406;9.984;2022-11-13T18:35:22;19.23;;;16.13;;
17993;SDS011;9122;48.406;9.984;2022-11-13T18:38:06;18.53;;;16.53;;